Time;durP1;ratioP1;P1;durP2;ratioP2;P2;SDS_P1;SDS_P2;PMS_P1;PMS_P2;Temp;Humidity;BMP_temperature;BMP_pressure;BME280_temperature;BME280_humidity;BME280_pressure;Samples;Min_cycle;Max_cycle;Signal;HPM_P1;HPM_P2
2022/07/28 00:01:08;;;;;;;3.28;1.80;;;11.70;99.90;;;;;;6177648;23;20039;-78
2022/07/28 00:03:34;;;;;;;3.88;1.50;;;11.70;99.90;;;;;;6226621;23;20012;-80
2022/07/28 00:06:01;;;;;;;9.32;2.40;;;11.70;99.90;;;;;;6201480;23;20198;-80
2022/07/28 00:08:26;;;;;;;4.28;1.92;;;11.70;99.90;;;;;;6177272;23;20012;-80
2022/07/28 00:10:52;;;;;;;3.15;1.98;;;11.80;99.90;;;;;;6201237;23;20042;-80
2022/07/28 00:16:34;;;;;;;2.63;1.83;;;11.80;99.90;;;;;;6184436;23;20078;-81
2022/07/28 00:19:19;;;;;;;;;;;;;;;;;;;;;
2022/07/28 00:22:14;;;;;;;4.53;1.50;;;11.70;99.90;;;;;;6204580;23;20059;-80
2022/07/28 00:25:14;;;;;;;3.10;1.40;;;11.80;99.90;;;;;;6204012;23;20020;-80
2022/07/28 00:27:40;;;;;;;4.18;1.35;;;11.10;99.90;;;;;;6198869;23;20195;-81
2022/07/28 00:30:07;;;;;;;3.03;1.60;;;11.70;99.90;;;;;;6225298;23;20058;-82
2022/07/28 00:32:33;;;;;;;1.63;1.40;;;11.70;99.90;;;;;;6200203;23;20333;-79
2022/07/28 00:34:59;;;;;;;3.47;1.52;;;11.70;99.90;;;;;;6199998;23;20008;-79
2022/07/28 00:37:36;;;;;;;3.28;1.40;;;11.70;99.90;;;;;;6171514;23;20016;-79
2022/07/28 00:44:22;;;;;;;5.43;1.90;;;11.70;99.90;;;;;;5968726;23;20342;-80
2022/07/28 00:47:00;;;;;;;1.83;1.50;;;11.20;99.90;;;;;;6039519;23;20021;-80
2022/07/28 00:49:26;;;;;;;2.78;1.42;;;11.60;99.90;;;;;;6086351;23;20018;-80
2022/07/28 00:52:25;;;;;;;4.55;1.60;;;11.50;99.90;;;;;;6088007;23;20009;-80
2022/07/28 00:55:04;;;;;;;2.72;1.70;;;11.20;99.90;;;;;;6111454;23;20060;-81
2022/07/28 01:01:23;;;;;;;3.33;1.60;;;10.60;99.90;;;;;;6132486;23;20021;-80
2022/07/28 01:04:00;;;;;;;4.72;1.65;;;11.70;99.90;;;;;;6111488;23;20010;-80
2022/07/28 01:07:10;;;;;;;4.18;1.85;;;11.30;99.90;;;;;;6111246;23;20331;-80
2022/07/28 01:09:53;;;;;;;4.95;2.40;;;11.00;99.90;;;;;;6111581;23;20041;-78
2022/07/28 01:12:57;;;;;;;5.15;1.90;;;11.40;99.90;;;;;;6201879;23;20039;-81
2022/07/28 01:16:06;;;;;;;2.47;1.83;;;11.50;99.90;;;;;;6223325;23;20023;-81
2022/07/28 01:18:40;;;;;;;3.83;1.90;;;11.50;99.90;;;;;;6181668;23;20038;-81
2022/07/28 01:24:52;;;;;;;4.22;2.10;;;11.50;99.90;;;;;;6220132;23;20020;-81
2022/07/28 01:27:44;;;;;;;4.20;2.13;;;11.70;99.90;;;;;;6162705;23;20017;-80
2022/07/28 01:30:48;;;;;;;4.55;2.58;;;11.60;99.90;;;;;;6165282;23;20296;-80
2022/07/28 01:33:26;;;;;;;2.38;2.03;;;11.80;99.90;;;;;;6048886;23;20019;-81
2022/07/28 01:36:15;;;;;;;4.35;2.38;;;11.70;99.90;;;;;;6156034;23;20079;-81
2022/07/28 01:38:46;;;;;;;3.75;2.15;;;11.60;99.90;;;;;;6139931;23;20040;-81
2022/07/28 01:41:16;;;;;;;3.35;1.70;;;11.40;99.90;;;;;;6140322;23;20079;-81
2022/07/28 01:44:02;;;;;;;4.28;2.97;;;11.20;99.90;;;;;;6141126;23;20226;-81
2022/07/28 01:51:01;;;;;;;2.80;2.50;;;10.80;99.90;;;;;;6042144;23;20073;-81
2022/07/28 01:54:39;;;;;;;4.07;2.13;;;10.40;99.90;;;;;;6086062;23;20100;-80
2022/07/28 01:57:42;;;;;;;;;;;;;;;;;;;;;
2022/07/28 02:00:41;;;;;;;4.90;2.50;;;10.90;99.90;;;;;;6084867;23;20333;-82
2022/07/28 02:07:25;;;;;;;2.30;1.90;;;10.90;99.90;;;;;;6075941;23;20363;-80
2022/07/28 02:09:59;;;;;;;3.25;2.00;;;10.70;99.90;;;;;;6075993;23;20022;-81
2022/07/28 02:12:38;;;;;;;2.78;2.10;;;10.70;99.90;;;;;;6075206;23;20109;-82
2022/07/28 02:15:09;;;;;;;4.38;2.50;;;10.90;99.90;;;;;;6191654;23;20250;-80
2022/07/28 02:17:36;;;;;;;3.38;2.10;;;10.70;99.90;;;;;;6176404;23;20016;-81
2022/07/28 02:20:14;;;;;;;3.47;2.13;;;10.80;99.90;;;;;;6201374;23;20012;-81
2022/07/28 02:26:52;;;;;;;4.22;2.38;;;10.80;99.90;;;;;;6195812;23;20028;-81
2022/07/28 02:29:27;;;;;;;2.90;2.20;;;10.90;99.90;;;;;;6201563;23;20051;-80
2022/07/28 02:32:00;;;;;;;4.80;2.83;;;11.00;99.90;;;;;;6226255;23;20008;-80
2022/07/28 02:34:27;;;;;;;5.35;2.90;;;11.00;99.90;;;;;;6202862;23;20008;-81
2022/07/28 02:37:08;;;;;;;3.25;2.22;;;11.10;99.90;;;;;;6177687;23;20124;-79
2022/07/28 02:39:44;;;;;;;3.42;2.00;;;11.30;99.90;;;;;;6206243;23;20046;-81
2022/07/28 02:42:16;;;;;;;3.38;2.05;;;11.00;99.90;;;;;;6178117;23;20008;-82
2022/07/28 02:44:54;;;;;;;3.72;2.53;;;10.90;99.90;;;;;;6202443;23;20018;-81
2022/07/28 02:47:24;;;;;;;5.40;3.03;;;11.00;99.90;;;;;;6202543;23;20246;-81
2022/07/28 02:49:51;;;;;;;3.80;2.78;;;11.10;99.90;;;;;;6201822;23;20020;-82
2022/07/28 02:52:21;;;;;;;6.43;3.33;;;11.10;99.90;;;;;;6200432;23;20008;-82
2022/07/28 02:54:49;;;;;;;5.15;3.20;;;11.30;99.90;;;;;;6202533;23;20232;-82
2022/07/28 02:57:16;;;;;;;3.35;3.00;;;11.40;99.90;;;;;;6228103;23;20008;-82
2022/07/28 02:59:46;;;;;;;5.18;3.20;;;11.40;99.90;;;;;;6202413;23;20024;-81
2022/07/28 03:02:12;;;;;;;3.78;2.70;;;11.50;99.90;;;;;;6226718;23;20278;-81
2022/07/28 03:04:58;;;;;;;4.53;2.90;;;11.50;99.90;;;;;;6203712;23;20027;-80
2022/07/28 03:07:28;;;;;;;4.25;2.67;;;11.50;99.90;;;;;;6203590;23;20191;-81
2022/07/28 03:09:54;;;;;;;3.85;2.80;;;11.60;99.90;;;;;;6203751;23;20091;-81
2022/07/28 03:12:20;;;;;;;5.45;3.17;;;11.70;99.90;;;;;;6203406;23;20012;-81
2022/07/28 03:14:45;;;;;;;4.13;2.90;;;11.10;99.90;;;;;;6177592;23;20063;-81
2022/07/28 03:17:11;;;;;;;5.97;3.00;;;11.90;99.90;;;;;;6201019;23;20210;-80
2022/07/28 03:19:37;;;;;;;3.90;2.70;;;11.70;99.90;;;;;;6203966;23;20019;-79
2022/07/28 03:22:04;;;;;;;4.95;2.33;;;11.60;99.90;;;;;;6202748;23;20016;-80
2022/07/28 03:24:34;;;;;;;3.17;2.25;;;11.60;99.90;;;;;;6202852;23;20073;-80
2022/07/28 03:27:24;;;;;;;7.13;2.38;;;11.40;99.90;;;;;;6202552;23;20016;-80
2022/07/28 03:30:11;;;;;;;4.85;3.00;;;11.40;99.90;;;;;;6202730;23;20012;-80
2022/07/28 03:37:06;;;;;;;6.88;4.05;;;11.50;99.90;;;;;;6154216;23;20014;-80
2022/07/28 03:40:29;;;;;;;5.07;3.75;;;11.60;99.90;;;;;;6175105;23;20020;-80
2022/07/28 03:43:09;;;;;;;5.68;3.58;;;11.70;99.90;;;;;;6163099;23;20051;-81
2022/07/28 03:45:36;;;;;;;5.85;3.58;;;11.70;99.90;;;;;;6202473;23;20015;-78
2022/07/28 03:48:02;;;;;;;9.52;4.25;;;11.70;99.90;;;;;;6199949;23;20012;-80
2022/07/28 03:50:30;;;;;;;6.13;3.95;;;11.70;99.90;;;;;;6177633;23;20194;-78
2022/07/28 03:52:57;;;;;;;4.28;3.67;;;11.80;99.90;;;;;;6201903;23;20014;-81
2022/07/28 03:55:24;;;;;;;5.25;3.80;;;11.90;99.90;;;;;;6202180;23;20275;-79
2022/07/28 03:57:49;;;;;;;5.22;3.13;;;11.90;99.90;;;;;;6202019;23;20008;-80
2022/07/28 04:00:16;;;;;;;5.57;3.40;;;12.00;99.90;;;;;;6202515;23;20012;-80
2022/07/28 04:02:43;;;;;;;3.40;3.10;;;12.10;99.90;;;;;;6202018;23;20012;-79
2022/07/28 04:05:13;;;;;;;5.50;3.47;;;12.20;99.90;;;;;;6175943;23;20317;-79
2022/07/28 04:07:40;;;;;;;7.25;3.40;;;12.20;99.90;;;;;;6227516;23;20298;-80
2022/07/28 04:10:08;;;;;;;7.13;3.75;;;12.30;99.90;;;;;;6198606;23;20272;-80
2022/07/28 04:13:07;;;;;;;7.53;3.08;;;12.20;99.90;;;;;;6201472;23;20016;-79
2022/07/28 04:15:33;;;;;;;4.75;3.00;;;12.20;99.90;;;;;;6178166;23;20008;-80
2022/07/28 04:18:04;;;;;;;3.72;2.85;;;12.20;99.90;;;;;;6226447;23;20293;-79
2022/07/28 04:20:35;;;;;;;7.13;3.50;;;12.00;99.90;;;;;;6176584;23;20023;-79
2022/07/28 04:23:01;;;;;;;5.88;2.70;;;12.70;99.90;;;;;;6201323;23;20291;-79
2022/07/28 04:25:30;;;;;;;4.80;2.92;;;11.60;99.90;;;;;;6178445;23;20035;-79
2022/07/28 04:28:06;;;;;;;4.90;2.92;;;12.30;99.90;;;;;;6201691;23;20015;-80
2022/07/28 04:30:44;;;;;;;4.20;2.95;;;12.30;99.90;;;;;;6201856;23;20195;-80
2022/07/28 04:36:31;;;;;;;3.47;2.42;;;12.50;99.90;;;;;;6208769;23;20071;-79
2022/07/28 04:39:00;;;;;;;4.43;2.85;;;12.50;99.90;;;;;;6225882;23;20058;-79
2022/07/28 04:41:27;;;;;;;5.10;2.90;;;12.50;99.90;;;;;;6226648;23;20011;-80
2022/07/28 04:43:57;;;;;;;3.75;2.75;;;12.20;99.90;;;;;;6203071;23;20023;-80
2022/07/28 04:46:22;;;;;;;5.28;2.72;;;12.20;99.90;;;;;;6202233;23;20012;-80
2022/07/28 04:48:48;;;;;;;3.60;2.60;;;12.20;99.90;;;;;;6226631;23;20203;-79
2022/07/28 04:51:14;;;;;;;5.80;2.83;;;12.10;99.90;;;;;;6201708;23;20051;-80
2022/07/28 04:53:43;;;;;;;5.57;3.30;;;11.90;99.90;;;;;;6202290;23;20015;-80
2022/07/28 04:56:11;;;;;;;4.55;3.35;;;12.00;99.90;;;;;;6202405;23;20309;-80
2022/07/28 04:58:39;;;;;;;3.90;3.25;;;12.00;99.90;;;;;;6201283;23;20039;-79
2022/07/28 05:01:08;;;;;;;5.03;3.33;;;12.20;99.90;;;;;;6201271;23;20012;-80
2022/07/28 05:03:34;;;;;;;5.40;3.40;;;12.30;99.90;;;;;;6175564;23;20012;-77
2022/07/28 05:06:03;;;;;;;4.63;3.05;;;12.30;99.90;;;;;;6200553;23;20011;-77
2022/07/28 05:08:29;;;;;;;3.85;2.75;;;12.30;99.90;;;;;;6176147;23;20026;-77
2022/07/28 05:10:58;;;;;;;3.70;3.10;;;12.30;99.90;;;;;;6201643;23;20186;-78
2022/07/28 05:13:26;;;;;;;4.38;2.72;;;12.40;99.90;;;;;;6177087;23;20008;-80
2022/07/28 05:15:54;;;;;;;3.45;3.15;;;12.40;99.90;;;;;;6201434;23;20054;-78
2022/07/28 05:18:20;;;;;;;4.40;2.90;;;12.50;99.90;;;;;;6153817;23;20008;-78
2022/07/28 05:20:46;;;;;;;5.10;2.90;;;12.60;99.90;;;;;;6200736;23;20014;-81
2022/07/28 05:23:11;;;;;;;3.10;2.75;;;12.50;99.90;;;;;;6202009;23;20020;-81
2022/07/28 05:25:38;;;;;;;5.47;3.17;;;12.60;99.90;;;;;;6203267;23;20020;-81
2022/07/28 05:28:04;;;;;;;3.90;3.23;;;12.70;99.90;;;;;;6176827;23;20023;-81
2022/07/28 05:30:30;;;;;;;3.30;3.00;;;12.80;99.90;;;;;;6176999;23;20278;-79
2022/07/28 05:32:58;;;;;;;4.13;3.30;;;12.90;99.90;;;;;;6202102;23;20198;-79
2022/07/28 05:35:25;;;;;;;4.97;3.20;;;13.00;99.90;;;;;;6200970;23;20047;-80
2022/07/28 05:37:50;;;;;;;7.15;3.17;;;13.20;99.90;;;;;;6177262;23;20047;-81
2022/07/28 05:40:17;;;;;;;3.85;2.72;;;13.30;99.90;;;;;;6177447;23;20016;-80
2022/07/28 05:42:43;;;;;;;2.78;2.40;;;13.40;99.90;;;;;;6228332;23;20008;-80
2022/07/28 05:45:12;;;;;;;4.13;2.40;;;13.60;99.90;;;;;;6202295;23;20009;-82
2022/07/28 05:47:44;;;;;;;5.80;2.13;;;13.50;99.90;;;;;;6227521;23;20036;-80
2022/07/28 05:50:14;;;;;;;3.15;2.13;;;13.70;99.90;;;;;;6201588;23;20046;-80
2022/07/28 05:52:40;;;;;;;4.95;2.20;;;13.70;99.90;;;;;;6202626;23;20008;-80
2022/07/28 05:55:48;;;;;;;;;;;;;;;;;;;;;
2022/07/28 05:58:24;;;;;;;4.55;2.00;;;13.90;99.90;;;;;;6227541;23;20294;-80
2022/07/28 06:00:52;;;;;;;3.17;2.03;;;13.90;99.90;;;;;;6201249;23;20067;-78
2022/07/28 06:03:18;;;;;;;3.13;2.20;;;14.00;99.90;;;;;;6203332;23;20008;-77
2022/07/28 06:05:55;;;;;;;5.28;2.60;;;14.10;99.90;;;;;;6202107;23;20058;-78
2022/07/28 06:08:46;;;;;;;5.97;2.13;;;14.10;99.90;;;;;;6203633;23;20008;-79
2022/07/28 06:11:39;;;;;;;4.50;2.70;;;14.10;99.90;;;;;;6203210;23;20067;-79
2022/07/28 06:14:15;;;;;;;;;;;;;;;;;;;;;
2022/07/28 06:16:49;;;;;;;6.25;3.10;;;14.30;99.90;;;;;;6205675;23;20008;-77
2022/07/28 06:19:25;;;;;;;6.95;3.47;;;14.30;99.90;;;;;;6230856;23;20019;-75
2022/07/28 06:46:13;;;;;;;3.75;2.55;;;14.60;99.90;;;;;;5907785;24;20042;-83
2022/07/28 06:53:23;;;;;;;4.35;2.30;;;14.90;99.90;;;;;;5852714;24;20038;-83
2022/07/28 07:11:47;;;;;;;3.90;2.70;;;14.40;99.90;;;;;;6156659;23;20028;-89
2022/07/28 07:14:16;;;;;;;6.22;3.05;;;14.40;99.90;;;;;;6131893;23;20017;-88
2022/07/28 07:16:43;;;;;;;3.33;2.65;;;14.40;99.90;;;;;;6140917;23;20016;-88
2022/07/28 07:19:10;;;;;;;4.57;2.85;;;14.20;99.90;;;;;;6116777;23;20023;-88
2022/07/28 07:21:40;;;;;;;5.05;3.00;;;14.20;99.90;;;;;;6137416;23;20020;-90
2022/07/28 07:24:07;;;;;;;3.38;2.60;;;14.20;99.90;;;;;;6135452;23;20064;-90
2022/07/28 07:26:35;;;;;;;4.43;2.80;;;14.20;99.90;;;;;;6137325;23;20019;-90
2022/07/28 07:29:04;;;;;;;4.38;2.50;;;14.20;99.90;;;;;;6118264;23;20013;-90
2022/07/28 07:31:37;;;;;;;6.20;2.47;;;14.30;99.90;;;;;;6166461;23;20021;-91
2022/07/28 07:45:42;;;;;;;5.10;2.33;;;14.40;99.90;;;;;;6151594;23;20041;-92
2022/07/28 07:48:08;;;;;;;4.30;1.77;;;14.60;99.90;;;;;;6077948;23;20085;-92
2022/07/28 07:50:38;;;;;;;4.15;1.65;;;14.60;99.90;;;;;;6099861;23;20052;-92
2022/07/28 07:53:07;;;;;;;3.50;1.50;;;14.80;99.90;;;;;;6070554;23;20013;-92
2022/07/28 07:55:33;;;;;;;5.05;1.88;;;14.90;99.90;;;;;;6062180;23;20025;-92
2022/07/28 07:58:01;;;;;;;2.28;1.80;;;14.90;99.90;;;;;;6045026;23;20014;-92
2022/07/28 08:00:29;;;;;;;2.53;1.30;;;15.00;99.90;;;;;;6051801;23;20086;-92
2022/07/28 08:02:56;;;;;;;3.30;1.40;;;15.20;99.90;;;;;;6092342;23;20045;-94
2022/07/28 08:05:22;;;;;;;1.55;1.33;;;15.30;99.90;;;;;;6069928;23;20077;-93
2022/07/28 08:07:48;;;;;;;2.80;1.27;;;15.40;99.90;;;;;;6062177;23;20033;-94
2022/07/28 08:10:19;;;;;;;1.88;1.38;;;15.50;99.90;;;;;;6038590;23;20022;-93
2022/07/28 08:12:48;;;;;;;2.75;1.35;;;15.60;99.90;;;;;;6151649;23;20025;-92
2022/07/28 08:15:14;;;;;;;2.78;1.40;;;15.70;99.90;;;;;;6115744;23;20017;-92
2022/07/28 08:17:44;;;;;;;2.95;1.40;;;15.80;99.90;;;;;;6139724;23;20164;-92
2022/07/28 08:20:11;;;;;;;2.65;1.13;;;15.80;99.90;;;;;;6145212;23;20024;-93
2022/07/28 08:22:57;;;;;;;2.80;0.90;;;15.80;99.90;;;;;;6129728;23;20039;-91
2022/07/28 08:25:26;;;;;;;2.78;1.35;;;16.00;99.90;;;;;;6157549;23;20027;-92
2022/07/28 08:27:53;;;;;;;2.80;1.35;;;16.20;99.90;;;;;;6123236;23;20020;-92
2022/07/28 08:30:19;;;;;;;2.42;1.15;;;16.20;99.90;;;;;;6123040;23;20017;-92
2022/07/28 08:32:46;;;;;;;2.42;1.30;;;16.30;99.90;;;;;;6121223;23;20017;-91
2022/07/28 08:35:12;;;;;;;2.45;1.00;;;16.60;99.90;;;;;;6139752;23;20430;-92
2022/07/28 08:37:38;;;;;;;2.67;1.27;;;16.70;99.90;;;;;;6142140;23;20044;-92
2022/07/28 08:40:13;;;;;;;2.10;1.10;;;16.70;99.90;;;;;;6116307;23;20120;-94
2022/07/28 08:43:14;;;;;;;2.42;1.15;;;16.80;99.90;;;;;;6145513;23;20013;-91
2022/07/28 08:45:44;;;;;;;9.10;1.10;;;16.90;99.90;;;;;;6150686;23;20068;-93
2022/07/28 08:48:11;;;;;;;1.38;1.00;;;17.10;99.90;;;;;;6112577;23;20043;-94
2022/07/28 08:50:38;;;;;;;2.50;1.05;;;16.90;99.90;;;;;;6111616;23;20045;-93
2022/07/28 08:53:05;;;;;;;2.60;1.20;;;17.00;99.90;;;;;;6088234;23;20451;-95
2022/07/28 08:55:32;;;;;;;2.50;1.25;;;17.10;99.90;;;;;;6108210;23;20013;-92
2022/07/28 08:57:59;;;;;;;1.30;0.90;;;17.40;99.90;;;;;;6110586;23;20087;-94
2022/07/28 09:00:25;;;;;;;2.90;0.90;;;17.40;99.90;;;;;;6133776;23;20009;-92
2022/07/28 09:02:51;;;;;;;0.70;0.70;;;17.50;99.90;;;;;;6085431;23;20053;-94
2022/07/28 09:05:21;;;;;;;3.53;1.08;;;17.40;99.90;;;;;;6110575;23;20064;-88
2022/07/28 09:07:49;;;;;;;2.70;1.00;;;17.30;99.90;;;;;;6143627;23;20032;-93
2022/07/28 09:10:16;;;;;;;2.22;1.00;;;17.40;99.90;;;;;;6121593;23;20057;-90
2022/07/28 09:12:42;;;;;;;2.72;1.00;;;17.40;99.90;;;;;;6095069;23;20100;-92
2022/07/28 09:15:10;;;;;;;2.63;1.00;;;17.60;99.90;;;;;;6113435;23;20067;-89
2022/07/28 09:17:39;;;;;;;1.90;0.80;;;17.60;99.90;;;;;;6085291;23;20017;-89
2022/07/28 09:20:06;;;;;;;2.88;1.10;;;17.80;99.90;;;;;;6109128;23;20013;-88
2022/07/28 09:22:32;;;;;;;4.57;0.95;;;17.70;99.90;;;;;;6106718;23;20013;-88
2022/07/28 09:25:01;;;;;;;1.45;1.00;;;17.90;99.90;;;;;;6130185;23;20013;-89
2022/07/28 09:27:27;;;;;;;4.03;1.00;;;17.80;99.90;;;;;;6104821;23;20021;-88
2022/07/28 09:29:59;;;;;;;2.13;1.10;;;18.10;99.90;;;;;;6082336;23;20017;-89
2022/07/28 09:32:26;;;;;;;2.05;0.90;;;18.40;99.90;;;;;;6108381;23;20561;-89
2022/07/28 09:34:52;;;;;;;2.13;1.20;;;17.90;99.90;;;;;;6133180;23;20046;-90
2022/07/28 09:37:21;;;;;;;2.72;1.33;;;17.70;99.90;;;;;;6107405;23;20072;-89
2022/07/28 09:39:48;;;;;;;2.65;1.20;;;18.00;99.90;;;;;;6132306;23;20020;-90
2022/07/28 09:42:17;;;;;;;2.40;1.10;;;18.20;99.90;;;;;;6107979;23;20048;-88
2022/07/28 09:44:44;;;;;;;1.27;0.95;;;18.10;99.90;;;;;;6132110;23;20047;-88
2022/07/28 09:47:27;;;;;;;1.23;0.90;;;18.00;99.90;;;;;;6131805;23;20014;-91
2022/07/28 09:52:38;;;;;;;1.55;1.00;;;17.90;99.90;;;;;;6212024;23;20494;-89
2022/07/28 09:55:10;;;;;;;4.03;1.35;;;17.90;99.90;;;;;;6116962;23;20052;-92
2022/07/28 09:57:37;;;;;;;4.72;1.17;;;18.90;99.90;;;;;;6164419;23;20009;-90
2022/07/28 10:00:07;;;;;;;3.20;1.30;;;18.90;99.90;;;;;;6138946;23;20334;-90
2022/07/28 10:02:33;;;;;;;2.83;1.05;;;18.50;99.90;;;;;;6163288;23;20012;-91
2022/07/28 10:04:59;;;;;;;2.63;1.05;;;18.50;99.90;;;;;;6139049;23;20020;-92
2022/07/28 10:07:29;;;;;;;6.03;1.20;;;18.50;99.90;;;;;;6139116;23;20016;-91
2022/07/28 10:10:00;;;;;;;2.47;0.90;;;18.40;99.90;;;;;;6163331;23;20017;-89
2022/07/28 10:12:31;;;;;;;1.80;0.90;;;18.20;99.90;;;;;;6162478;23;20013;-90
2022/07/28 10:14:59;;;;;;;1.77;0.82;;;18.20;99.90;;;;;;6163666;23;20012;-92
2022/07/28 10:17:30;;;;;;;3.42;1.08;;;18.30;99.90;;;;;;6162026;23;20042;-90
2022/07/28 10:20:01;;;;;;;2.47;1.00;;;17.80;99.90;;;;;;6139685;23;20016;-91
2022/07/28 10:22:31;;;;;;;4.35;1.33;;;18.00;99.90;;;;;;6162296;23;20009;-91
2022/07/28 10:25:00;;;;;;;3.38;1.63;;;18.10;99.90;;;;;;6163977;23;20019;-91
2022/07/28 10:27:27;;;;;;;2.53;0.90;;;18.30;99.90;;;;;;6167743;23;20075;-91
2022/07/28 10:30:02;;;;;;;2.67;0.98;;;18.40;99.90;;;;;;6170874;23;20023;-91
2022/07/28 10:32:32;;;;;;;4.20;1.13;;;18.60;99.90;;;;;;6163793;23;20345;-90
2022/07/28 10:35:11;;;;;;;3.42;1.02;;;18.50;99.90;;;;;;6163701;23;20459;-90
2022/07/28 10:37:44;;;;;;;3.70;1.13;;;18.50;99.90;;;;;;6164539;23;20152;-90
2022/07/28 10:40:11;;;;;;;2.40;1.00;;;18.40;99.90;;;;;;6164567;23;20084;-90
2022/07/28 10:42:40;;;;;;;5.93;1.13;;;18.30;99.90;;;;;;6163204;23;20106;-89
2022/07/28 10:45:11;;;;;;;2.83;1.10;;;18.50;99.90;;;;;;6163260;23;20017;-90
2022/07/28 10:47:37;;;;;;;2.95;1.10;;;18.50;99.90;;;;;;6163273;23;20453;-91
2022/07/28 10:50:04;;;;;;;1.73;1.00;;;18.60;99.90;;;;;;6115492;23;20051;-92
2022/07/28 10:52:32;;;;;;;1.67;0.90;;;18.10;99.90;;;;;;6114167;23;20027;-91
2022/07/28 10:55:24;;;;;;;3.20;0.98;;;17.90;99.90;;;;;;6163477;23;20012;-92
2022/07/28 10:58:06;;;;;;;2.35;0.90;;;17.90;99.90;;;;;;6163485;23;20061;-91
2022/07/28 11:00:34;;;;;;;1.67;0.70;;;17.60;99.90;;;;;;6163278;23;20012;-91
2022/07/28 11:03:01;;;;;;;1.83;0.90;;;17.50;99.90;;;;;;6139349;23;20013;-91
2022/07/28 11:05:41;;;;;;;2.03;0.90;;;17.30;99.90;;;;;;6138744;23;20355;-91
2022/07/28 11:08:25;;;;;;;1.67;0.80;;;17.30;99.90;;;;;;6138774;23;20074;-92
2022/07/28 11:10:52;;;;;;;1.98;0.80;;;17.20;99.90;;;;;;6163456;23;20055;-89
2022/07/28 11:13:24;;;;;;;2.22;1.02;;;17.10;99.90;;;;;;6138379;23;20016;-92
2022/07/28 11:15:51;;;;;;;2.20;0.90;;;16.90;99.90;;;;;;6164351;23;20013;-91
2022/07/28 11:18:18;;;;;;;2.75;0.90;;;17.10;99.90;;;;;;6164868;23;20446;-91
2022/07/28 11:20:55;;;;;;;2.58;1.27;;;17.10;99.90;;;;;;6141297;23;20040;-93
2022/07/28 11:23:42;;;;;;;3.53;1.10;;;17.20;99.90;;;;;;6164714;23;20084;-91
2022/07/28 11:26:23;;;;;;;3.72;1.02;;;17.20;99.90;;;;;;6140098;23;20073;-93
2022/07/28 11:29:07;;;;;;;3.00;1.00;;;17.00;99.90;;;;;;6164900;23;20083;-91
2022/07/28 11:31:45;;;;;;;1.38;0.90;;;17.00;99.90;;;;;;6165602;23;20013;-92
2022/07/28 11:34:10;;;;;;;1.70;0.90;;;17.30;99.90;;;;;;6165289;23;20055;-93
2022/07/28 11:37:21;;;;;;;3.40;0.98;;;17.40;99.90;;;;;;6164764;23;20012;-94
2022/07/28 11:39:47;;;;;;;1.25;0.90;;;17.40;99.90;;;;;;6158246;23;20389;-94
2022/07/28 11:42:26;;;;;;;3.67;0.85;;;17.40;99.90;;;;;;6117282;23;20012;-91
2022/07/28 11:45:16;;;;;;;1.70;1.00;;;17.50;99.90;;;;;;6166142;23;20287;-92
2022/07/28 11:47:42;;;;;;;1.52;0.80;;;17.60;99.90;;;;;;6166082;23;20066;-92
2022/07/28 11:50:16;;;;;;;2.45;0.93;;;17.60;99.90;;;;;;6117927;23;20088;-91
2022/07/28 11:52:58;;;;;;;2.97;1.00;;;18.20;99.90;;;;;;6159042;23;20028;-91
2022/07/28 11:55:24;;;;;;;1.45;1.00;;;18.10;99.90;;;;;;6161107;23;20013;-92
2022/07/28 11:57:51;;;;;;;1.25;0.80;;;18.50;99.90;;;;;;6136952;23;20312;-93
2022/07/28 12:00:23;;;;;;;1.60;0.90;;;18.80;99.90;;;;;;6113607;23;20013;-94
2022/07/28 12:02:49;;;;;;;2.03;0.90;;;19.30;99.90;;;;;;6162146;23;20017;-91
2022/07/28 12:05:16;;;;;;;1.83;0.98;;;19.70;99.90;;;;;;6137553;23;20044;-95
2022/07/28 12:07:51;;;;;;;2.13;0.90;;;19.30;99.90;;;;;;6136967;23;20393;-91
2022/07/28 12:10:27;;;;;;;2.67;0.88;;;19.30;99.90;;;;;;6162106;23;20151;-92
2022/07/28 12:12:56;;;;;;;1.67;0.90;;;19.30;99.90;;;;;;6162283;23;20047;-92
2022/07/28 12:15:22;;;;;;;1.45;0.88;;;19.50;99.90;;;;;;6161741;23;20518;-92
2022/07/28 12:17:49;;;;;;;3.08;1.10;;;19.50;99.90;;;;;;6113830;23;20072;-93
2022/07/28 12:20:16;;;;;;;1.67;1.00;;;19.80;99.90;;;;;;6163792;23;20093;-93
2022/07/28 12:22:58;;;;;;;2.42;1.00;;;19.60;99.90;;;;;;6149369;23;20043;-94
2022/07/28 12:25:25;;;;;;;4.07;0.80;;;19.80;99.90;;;;;;6173920;23;20013;-93
2022/07/28 12:27:51;;;;;;;1.63;0.98;;;19.30;99.90;;;;;;6146969;23;20028;-90
2022/07/28 12:30:22;;;;;;;3.83;0.80;;;19.30;99.90;;;;;;6112065;23;20017;-93
2022/07/28 12:32:48;;;;;;;5.03;1.23;;;19.60;99.90;;;;;;6112408;23;20535;-91
2022/07/28 12:35:14;;;;;;;1.23;0.90;;;19.20;99.90;;;;;;6136258;23;20017;-92
2022/07/28 12:37:43;;;;;;;1.20;0.80;;;19.30;99.90;;;;;;6136321;23;20013;-93
2022/07/28 12:40:11;;;;;;;2.08;0.82;;;19.20;99.90;;;;;;6113738;23;20199;-93
2022/07/28 12:42:37;;;;;;;3.20;1.00;;;19.50;99.90;;;;;;6116607;23;20083;-81
2022/07/28 12:45:06;;;;;;;2.72;0.90;;;19.60;99.90;;;;;;6143638;23;20024;-77
2022/07/28 12:47:33;;;;;;;2.08;1.00;;;20.50;99.90;;;;;;6192968;23;20302;-81
2022/07/28 12:50:15;;;;;;;2.00;0.93;;;20.30;99.90;;;;;;6144289;23;20299;-80
2022/07/28 12:52:42;;;;;;;2.45;0.90;;;20.00;99.90;;;;;;6193236;23;20012;-81
2022/07/28 12:55:24;;;;;;;1.00;0.70;;;20.10;99.90;;;;;;6167737;23;20224;-80
2022/07/28 12:57:51;;;;;;;3.58;1.08;;;19.70;99.90;;;;;;6166461;23;20243;-80
2022/07/28 13:00:23;;;;;;;2.00;1.00;;;20.00;99.90;;;;;;6144174;23;20055;-80
2022/07/28 13:02:51;;;;;;;1.88;1.00;;;20.70;99.90;;;;;;6167642;23;20207;-80
2022/07/28 13:08:25;;;;;;;2.35;1.00;;;20.20;99.90;;;;;;6171972;23;20208;-81
2022/07/28 13:10:51;;;;;;;1.20;0.90;;;20.00;99.90;;;;;;6144171;23;20040;-80
2022/07/28 13:13:18;;;;;;;1.67;1.00;;;19.40;99.90;;;;;;6143707;23;20020;-79
2022/07/28 13:15:44;;;;;;;1.33;1.00;;;19.40;99.90;;;;;;6193310;23;20044;-80
2022/07/28 13:18:10;;;;;;;2.30;0.93;;;19.50;99.90;;;;;;6167803;23;20021;-79
2022/07/28 13:20:49;;;;;;;1.90;0.98;;;19.40;99.90;;;;;;6143234;23;20005;-79
2022/07/28 13:23:15;;;;;;;1.92;1.00;;;19.50;99.90;;;;;;6168575;23;20005;-80
2022/07/28 13:25:41;;;;;;;2.13;1.00;;;19.70;99.90;;;;;;6168325;23;20013;-79
2022/07/28 13:28:23;;;;;;;1.48;0.93;;;19.30;99.90;;;;;;6167403;23;20019;-79
2022/07/28 13:30:49;;;;;;;2.75;1.02;;;19.30;99.90;;;;;;6167350;23;20100;-79
2022/07/28 13:33:14;;;;;;;3.90;1.05;;;19.60;99.90;;;;;;6167961;23;20020;-79
2022/07/28 13:35:40;;;;;;;2.28;1.00;;;19.70;99.90;;;;;;6143658;23;20067;-80
2022/07/28 13:38:06;;;;;;;1.55;0.93;;;19.80;99.90;;;;;;6143238;23;20016;-78
2022/07/28 13:40:31;;;;;;;6.05;1.10;;;20.50;99.90;;;;;;6167795;23;20044;-80
2022/07/28 13:42:57;;;;;;;1.08;0.80;;;20.80;99.90;;;;;;6143545;23;20076;-79
2022/07/28 13:45:23;;;;;;;1.80;0.93;;;21.70;99.90;;;;;;6143459;23;20076;-80
2022/07/28 13:47:49;;;;;;;2.72;1.00;;;20.80;99.90;;;;;;6143620;23;20240;-80
2022/07/28 13:50:14;;;;;;;1.33;1.00;;;20.80;99.90;;;;;;6143576;23;20013;-82
2022/07/28 13:52:40;;;;;;;1.88;0.93;;;20.70;99.90;;;;;;6143594;23;20009;-80
2022/07/28 13:55:07;;;;;;;1.35;0.90;;;20.90;99.90;;;;;;6168158;23;20013;-79
2022/07/28 13:57:33;;;;;;;3.78;1.10;;;20.70;99.90;;;;;;6167828;23;20227;-80
2022/07/28 13:59:58;;;;;;;1.40;0.85;;;21.00;99.90;;;;;;6167222;23;20011;-80
2022/07/28 14:02:26;;;;;;;2.38;1.15;;;21.10;99.90;;;;;;6144349;23;20009;-82
2022/07/28 14:04:54;;;;;;;1.95;1.00;;;20.50;99.90;;;;;;6143331;23;20032;-80
2022/07/28 14:07:20;;;;;;;1.33;0.90;;;20.00;99.90;;;;;;6143928;23;20028;-80
2022/07/28 14:09:45;;;;;;;1.75;0.88;;;19.70;99.90;;;;;;6142564;23;20071;-81
2022/07/28 14:12:11;;;;;;;3.58;1.10;;;20.00;99.90;;;;;;6143098;23;20013;-80
2022/07/28 14:14:37;;;;;;;1.77;1.08;;;20.00;99.90;;;;;;6165916;23;20013;-82
2022/07/28 14:17:03;;;;;;;1.73;1.00;;;20.10;99.90;;;;;;6143591;23;20009;-81
2022/07/28 14:19:28;;;;;;;2.25;1.17;;;20.20;99.90;;;;;;6194829;23;20208;-81
2022/07/28 14:21:54;;;;;;;1.30;0.80;;;20.10;99.90;;;;;;6142360;23;20015;-80
2022/07/28 14:24:20;;;;;;;1.67;1.00;;;20.20;99.90;;;;;;6166885;23;20075;-79
2022/07/28 14:26:45;;;;;;;1.27;0.85;;;19.90;99.90;;;;;;6142640;23;20013;-79
2022/07/28 14:29:11;;;;;;;1.45;0.90;;;20.30;99.90;;;;;;6142830;23;20040;-79
2022/07/28 14:31:37;;;;;;;2.13;0.80;;;19.80;99.90;;;;;;6141810;23;20020;-81
2022/07/28 14:34:03;;;;;;;3.28;0.90;;;20.20;99.90;;;;;;6142732;23;20008;-80
2022/07/28 14:36:29;;;;;;;5.95;1.85;;;20.70;99.90;;;;;;6167773;23;20195;-79
2022/07/28 14:38:55;;;;;;;2.63;1.00;;;20.40;99.90;;;;;;6192140;23;20017;-80
2022/07/28 14:41:22;;;;;;;1.45;0.90;;;20.20;99.90;;;;;;6192548;23;20203;-80
2022/07/28 14:43:48;;;;;;;0.70;0.70;;;20.40;99.90;;;;;;6143015;23;20024;-79
2022/07/28 14:46:13;;;;;;;1.60;0.80;;;20.50;99.90;;;;;;6165884;23;20005;-68
2022/07/28 14:48:39;;;;;;;2.20;1.10;;;20.20;99.90;;;;;;6166593;23;20183;-79
2022/07/28 14:51:05;;;;;;;3.63;0.80;;;19.90;99.90;;;;;;6142554;23;20211;-80